sensor_id;sensor_type;location;lat;lon;timestamp;pressure;altitude;pressure_sealevel;temperature;humidity
35716;BME280;21840;44.920;8.616;2023-05-19T00:00:38;100570.25;;;22.91;44.31
35716;BME280;21840;44.920;8.616;2023-05-19T00:03:04;100573.59;;;22.80;44.78
35716;BME280;21840;44.920;8.616;2023-05-19T00:05:29;100571.16;;;22.72;44.92
35716;BME280;21840;44.920;8.616;2023-05-19T00:07:56;100572.59;;;22.61;45.12
35716;BME280;21840;44.920;8.616;2023-05-19T00:10:22;100573.19;;;22.70;44.79
35716;BME280;21840;44.920;8.616;2023-05-19T00:12:48;100572.34;;;22.76;44.67
35716;BME280;21840;44.920;8.616;2023-05-19T00:15:16;100575.88;;;22.63;45.06
35716;BME280;21840;44.920;8.616;2023-05-19T00:17:41;100578.53;;;22.76;45.01
35716;BME280;21840;44.920;8.616;2023-05-19T00:20:07;100580.00;;;22.66;45.12
35716;BME280;21840;44.920;8.616;2023-05-19T00:22:32;100580.63;;;22.61;45.18
35716;BME280;21840;44.920;8.616;2023-05-19T00:24:58;100580.22;;;22.57;45.49
35716;BME280;21840;44.920;8.616;2023-05-19T00:27:23;100585.38;;;22.59;45.34
35716;BME280;21840;44.920;8.616;2023-05-19T00:29:49;100575.31;;;22.34;46.26
35716;BME280;21840;44.920;8.616;2023-05-19T00:32:14;100577.34;;;22.12;46.88
35716;BME280;21840;44.920;8.616;2023-05-19T00:34:40;100577.94;;;22.01;46.90
35716;BME280;21840;44.920;8.616;2023-05-19T00:37:06;100580.03;;;21.99;47.35
35716;BME280;21840;44.920;8.616;2023-05-19T00:39:31;100577.56;;;22.37;46.78
35716;BME280;21840;44.920;8.616;2023-05-19T00:41:56;100575.31;;;22.34;46.93
35716;BME280;21840;44.920;8.616;2023-05-19T00:44:22;100573.66;;;22.20;47.20
35716;BME280;21840;44.920;8.616;2023-05-19T00:46:47;100569.09;;;22.14;47.56
35716;BME280;21840;44.920;8.616;2023-05-19T00:49:13;100575.69;;;22.05;47.81
35716;BME280;21840;44.920;8.616;2023-05-19T00:51:39;100565.59;;;21.87;48.09
35716;BME280;21840;44.920;8.616;2023-05-19T00:54:05;100563.31;;;21.70;48.13
35716;BME280;21840;44.920;8.616;2023-05-19T00:56:31;100561.69;;;21.96;48.00
35716;BME280;21840;44.920;8.616;2023-05-19T00:58:58;100560.84;;;21.75;48.44
35716;BME280;21840;44.920;8.616;2023-05-19T01:01:24;100563.72;;;21.74;48.53
35716;BME280;21840;44.920;8.616;2023-05-19T01:03:50;100558.81;;;21.78;48.35
35716;BME280;21840;44.920;8.616;2023-05-19T01:06:16;100565.78;;;21.79;48.38
35716;BME280;21840;44.920;8.616;2023-05-19T01:08:43;100560.84;;;21.89;48.19
35716;BME280;21840;44.920;8.616;2023-05-19T01:11:08;100565.16;;;21.76;48.42
35716;BME280;21840;44.920;8.616;2023-05-19T01:13:35;100561.91;;;22.01;48.06
35716;BME280;21840;44.920;8.616;2023-05-19T01:16:17;100559.84;;;21.96;47.77
35716;BME280;21840;44.920;8.616;2023-05-19T01:21:31;100557.13;;;21.76;48.73
35716;BME280;21840;44.920;8.616;2023-05-19T01:26:34;100557.97;;;21.70;49.08
35716;BME280;21840;44.920;8.616;2023-05-19T01:29:15;100566.22;;;21.82;48.43
35716;BME280;21840;44.920;8.616;2023-05-19T01:31:49;100564.56;;;21.88;48.79
35716;BME280;21840;44.920;8.616;2023-05-19T01:34:16;100556.56;;;22.08;48.37
35716;BME280;21840;44.920;8.616;2023-05-19T01:36:44;100570.81;;;22.22;47.95
35716;BME280;21840;44.920;8.616;2023-05-19T01:39:12;100561.09;;;22.07;48.01
35716;BME280;21840;44.920;8.616;2023-05-19T01:41:38;100568.09;;;22.02;48.15
35716;BME280;21840;44.920;8.616;2023-05-19T01:44:07;100562.94;;;22.13;48.15
35716;BME280;21840;44.920;8.616;2023-05-19T01:46:32;100567.66;;;22.11;48.30
35716;BME280;21840;44.920;8.616;2023-05-19T01:48:58;100562.50;;;21.96;48.59
35716;BME280;21840;44.920;8.616;2023-05-19T01:51:23;100565.00;;;21.98;48.72
35716;BME280;21840;44.920;8.616;2023-05-19T01:53:49;100565.41;;;21.82;49.06
35716;BME280;21840;44.920;8.616;2023-05-19T01:56:15;100566.19;;;21.62;49.50
35716;BME280;21840;44.920;8.616;2023-05-19T01:58:47;100557.75;;;21.65;49.54
35716;BME280;21840;44.920;8.616;2023-05-19T02:01:30;100561.28;;;21.79;49.54
35716;BME280;21840;44.920;8.616;2023-05-19T02:04:00;100555.91;;;21.66;49.89
35716;BME280;21840;44.920;8.616;2023-05-19T02:06:34;100552.16;;;21.47;50.33
35716;BME280;21840;44.920;8.616;2023-05-19T02:09:01;100556.19;;;21.36;50.46
35716;BME280;21840;44.920;8.616;2023-05-19T02:11:45;100545.16;;;21.39;50.40
35716;BME280;21840;44.920;8.616;2023-05-19T02:14:19;100551.00;;;21.21;50.79
35716;BME280;21840;44.920;8.616;2023-05-19T02:16:46;100556.41;;;21.35;50.71
35716;BME280;21840;44.920;8.616;2023-05-19T02:19:31;100543.47;;;21.38;50.63
35716;BME280;21840;44.920;8.616;2023-05-19T02:21:59;100544.06;;;21.27;50.77
35716;BME280;21840;44.920;8.616;2023-05-19T02:24:25;100548.75;;;21.18;50.89
35716;BME280;21840;44.920;8.616;2023-05-19T02:26:50;100545.44;;;21.09;50.89
35716;BME280;21840;44.920;8.616;2023-05-19T02:29:17;100548.34;;;21.21;50.62
35716;BME280;21840;44.920;8.616;2023-05-19T02:31:42;100555.31;;;21.16;50.79
35716;BME280;21840;44.920;8.616;2023-05-19T02:34:08;100545.03;;;21.13;50.66
35716;BME280;21840;44.920;8.616;2023-05-19T02:36:35;100546.47;;;21.15;50.58
35716;BME280;21840;44.920;8.616;2023-05-19T02:39:03;100544.44;;;21.24;50.38
35716;BME280;21840;44.920;8.616;2023-05-19T02:41:29;100538.38;;;20.95;50.87
35716;BME280;21840;44.920;8.616;2023-05-19T02:43:54;100542.97;;;21.08;50.56
35716;BME280;21840;44.920;8.616;2023-05-19T02:46:20;100534.28;;;20.93;50.66
35716;BME280;21840;44.920;8.616;2023-05-19T02:48:45;100543.69;;;20.88;50.63
35716;BME280;21840;44.920;8.616;2023-05-19T02:51:10;100534.44;;;20.84;50.89
35716;BME280;21840;44.920;8.616;2023-05-19T02:53:36;100527.28;;;20.92;50.71
35716;BME280;21840;44.920;8.616;2023-05-19T02:56:01;100530.97;;;20.90;50.52
35716;BME280;21840;44.920;8.616;2023-05-19T02:58:27;100525.66;;;20.97;50.85
35716;BME280;21840;44.920;8.616;2023-05-19T03:00:52;100528.47;;;20.82;51.13
35716;BME280;21840;44.920;8.616;2023-05-19T03:03:18;100524.84;;;20.97;50.71
35716;BME280;21840;44.920;8.616;2023-05-19T03:05:43;100522.50;;;20.80;51.13
35716;BME280;21840;44.920;8.616;2023-05-19T03:08:09;100525.81;;;20.82;51.41
35716;BME280;21840;44.920;8.616;2023-05-19T03:10:34;100521.94;;;20.92;51.11
35716;BME280;21840;44.920;8.616;2023-05-19T03:13:00;100535.34;;;21.05;50.94
35716;BME280;21840;44.920;8.616;2023-05-19T03:15:25;100521.28;;;20.83;51.27
35716;BME280;21840;44.920;8.616;2023-05-19T03:17:51;100518.25;;;20.93;51.41
35716;BME280;21840;44.920;8.616;2023-05-19T03:20:16;100520.44;;;20.76;51.57
35716;BME280;21840;44.920;8.616;2023-05-19T03:22:42;100519.78;;;20.67;51.85
35716;BME280;21840;44.920;8.616;2023-05-19T03:25:08;100512.94;;;20.99;51.48
35716;BME280;21840;44.920;8.616;2023-05-19T03:27:34;100513.63;;;21.21;51.21
35716;BME280;21840;44.920;8.616;2023-05-19T03:29:59;100517.28;;;21.07;51.44
35716;BME280;21840;44.920;8.616;2023-05-19T03:32:25;100515.22;;;21.09;51.70
35716;BME280;21840;44.920;8.616;2023-05-19T03:34:50;100522.78;;;20.99;51.85
35716;BME280;21840;44.920;8.616;2023-05-19T03:37:16;100525.72;;;21.10;51.93
35716;BME280;21840;44.920;8.616;2023-05-19T03:39:41;100534.53;;;21.11;51.78
35716;BME280;21840;44.920;8.616;2023-05-19T03:42:06;100534.53;;;21.04;51.86
35716;BME280;21840;44.920;8.616;2023-05-19T03:44:32;100538.03;;;21.05;51.93
35716;BME280;21840;44.920;8.616;2023-05-19T03:46:58;100542.47;;;20.84;52.18
35716;BME280;21840;44.920;8.616;2023-05-19T03:49:43;100540.47;;;21.00;52.00
35716;BME280;21840;44.920;8.616;2023-05-19T03:52:31;100542.69;;;20.96;51.85
35716;BME280;21840;44.920;8.616;2023-05-19T03:55:04;100547.53;;;21.21;51.59
35716;BME280;21840;44.920;8.616;2023-05-19T03:57:31;100541.19;;;21.28;51.24
35716;BME280;21840;44.920;8.616;2023-05-19T03:59:57;100550.91;;;21.43;51.14
35716;BME280;21840;44.920;8.616;2023-05-19T04:02:23;100550.22;;;21.34;51.07
35716;BME280;21840;44.920;8.616;2023-05-19T04:04:48;100551.66;;;21.37;50.99
35716;BME280;21840;44.920;8.616;2023-05-19T04:07:15;100548.91;;;21.58;50.90
35716;BME280;21840;44.920;8.616;2023-05-19T04:09:41;100555.50;;;21.62;50.56
35716;BME280;21840;44.920;8.616;2023-05-19T04:12:06;100547.91;;;21.72;50.24
35716;BME280;21840;44.920;8.616;2023-05-19T04:14:31;100550.75;;;21.58;50.58
35716;BME280;21840;44.920;8.616;2023-05-19T04:16:57;100557.13;;;21.76;50.24
35716;BME280;21840;44.920;8.616;2023-05-19T04:19:22;100562.91;;;21.73;50.09
35716;BME280;21840;44.920;8.616;2023-05-19T04:21:48;100569.06;;;21.74;50.09
35716;BME280;21840;44.920;8.616;2023-05-19T04:24:13;100564.09;;;21.51;50.29
35716;BME280;21840;44.920;8.616;2023-05-19T04:26:39;100564.50;;;21.61;50.14
35716;BME280;21840;44.920;8.616;2023-05-19T04:29:10;100561.63;;;21.56;50.35
35716;BME280;21840;44.920;8.616;2023-05-19T04:31:41;100559.38;;;21.53;50.63
35716;BME280;21840;44.920;8.616;2023-05-19T04:34:06;100564.03;;;21.38;51.04
35716;BME280;21840;44.920;8.616;2023-05-19T04:36:32;100562.06;;;21.66;50.24
35716;BME280;21840;44.920;8.616;2023-05-19T04:38:58;100560.88;;;21.82;49.92
35716;BME280;21840;44.920;8.616;2023-05-19T04:41:31;100563.72;;;21.67;50.16
35716;BME280;21840;44.920;8.616;2023-05-19T04:43:58;100565.13;;;21.63;50.38
35716;BME280;21840;44.920;8.616;2023-05-19T04:46:23;100568.94;;;21.27;50.69
35716;BME280;21840;44.920;8.616;2023-05-19T04:48:52;100560.50;;;21.30;50.79
35716;BME280;21840;44.920;8.616;2023-05-19T04:51:19;100571.13;;;21.10;51.03
35716;BME280;21840;44.920;8.616;2023-05-19T04:53:45;100568.31;;;22.47;48.08
35716;BME280;21840;44.920;8.616;2023-05-19T04:56:12;100551.38;;;22.66;47.31
35716;BME280;21840;44.920;8.616;2023-05-19T04:58:42;100560.28;;;22.40;47.94
35716;BME280;21840;44.920;8.616;2023-05-19T05:01:12;100559.63;;;22.51;47.67
35716;BME280;21840;44.920;8.616;2023-05-19T05:03:38;100561.69;;;22.56;47.53
35716;BME280;21840;44.920;8.616;2023-05-19T05:06:04;100565.41;;;22.61;47.51
35716;BME280;21840;44.920;8.616;2023-05-19T05:08:30;100559.25;;;22.48;47.99
35716;BME280;21840;44.920;8.616;2023-05-19T05:10:57;100560.69;;;22.37;48.18
35716;BME280;21840;44.920;8.616;2023-05-19T05:13:23;100566.22;;;22.62;47.67
35716;BME280;21840;44.920;8.616;2023-05-19T05:15:48;100569.75;;;22.49;47.99
35716;BME280;21840;44.920;8.616;2023-05-19T05:18:16;100573.78;;;22.85;47.43
35716;BME280;21840;44.920;8.616;2023-05-19T05:20:43;100567.84;;;22.70;47.51
35716;BME280;21840;44.920;8.616;2023-05-19T05:23:10;100566.56;;;22.86;47.72
35716;BME280;21840;44.920;8.616;2023-05-19T05:25:40;100563.44;;;22.89;47.64
35716;BME280;21840;44.920;8.616;2023-05-19T05:28:05;100560.47;;;22.52;47.91
35716;BME280;21840;44.920;8.616;2023-05-19T05:30:35;100563.75;;;22.67;47.62
35716;BME280;21840;44.920;8.616;2023-05-19T05:33:00;100560.19;;;22.87;47.14
35716;BME280;21840;44.920;8.616;2023-05-19T05:35:37;100553.16;;;22.92;47.69
35716;BME280;21840;44.920;8.616;2023-05-19T05:38:04;100554.78;;;22.93;47.58
35716;BME280;21840;44.920;8.616;2023-05-19T05:40:29;100549.25;;;22.95;47.40
35716;BME280;21840;44.920;8.616;2023-05-19T05:42:55;100547.56;;;23.07;47.37
35716;BME280;21840;44.920;8.616;2023-05-19T05:45:24;100554.22;;;22.85;47.77
35716;BME280;21840;44.920;8.616;2023-05-19T05:47:50;100550.19;;;23.14;47.22
35716;BME280;21840;44.920;8.616;2023-05-19T05:50:16;100550.78;;;23.22;47.04
35716;BME280;21840;44.920;8.616;2023-05-19T05:52:44;100556.31;;;21.76;50.24
35716;BME280;21840;44.920;8.616;2023-05-19T05:55:11;100556.28;;;21.56;50.99
35716;BME280;21840;44.920;8.616;2023-05-19T05:57:37;100549.66;;;21.39;51.47
35716;BME280;21840;44.920;8.616;2023-05-19T06:00:06;100553.41;;;21.51;51.40
35716;BME280;21840;44.920;8.616;2023-05-19T06:02:44;100560.88;;;21.21;51.85
35716;BME280;21840;44.920;8.616;2023-05-19T06:05:11;100562.16;;;21.38;51.56
35716;BME280;21840;44.920;8.616;2023-05-19T06:07:39;100569.75;;;21.28;51.84
35716;BME280;21840;44.920;8.616;2023-05-19T06:10:05;100562.00;;;21.46;51.62
35716;BME280;21840;44.920;8.616;2023-05-19T06:12:31;100558.16;;;21.14;51.92
35716;BME280;21840;44.920;8.616;2023-05-19T06:14:59;100557.81;;;21.24;51.67
35716;BME280;21840;44.920;8.616;2023-05-19T06:17:33;100565.44;;;21.33;51.41
35716;BME280;21840;44.920;8.616;2023-05-19T06:20:02;100567.56;;;21.51;51.29
35716;BME280;21840;44.920;8.616;2023-05-19T06:22:29;100565.53;;;21.53;50.78
35716;BME280;21840;44.920;8.616;2023-05-19T06:24:55;100566.66;;;21.31;51.61
35716;BME280;21840;44.920;8.616;2023-05-19T06:27:20;100554.75;;;21.33;51.65
35716;BME280;21840;44.920;8.616;2023-05-19T06:29:49;100559.50;;;21.38;51.43
35716;BME280;21840;44.920;8.616;2023-05-19T06:32:15;100561.75;;;21.35;51.84
35716;BME280;21840;44.920;8.616;2023-05-19T06:34:40;100576.72;;;21.22;51.56
35716;BME280;21840;44.920;8.616;2023-05-19T06:37:06;100562.84;;;21.47;51.32
35716;BME280;21840;44.920;8.616;2023-05-19T06:39:32;100563.06;;;21.52;51.13
35716;BME280;21840;44.920;8.616;2023-05-19T06:41:58;100563.69;;;21.54;50.94
35716;BME280;21840;44.920;8.616;2023-05-19T06:44:48;100556.34;;;21.69;50.11
35716;BME280;21840;44.920;8.616;2023-05-19T06:47:15;100564.16;;;21.78;49.62
35716;BME280;21840;44.920;8.616;2023-05-19T06:49:40;100569.91;;;21.74;49.56
35716;BME280;21840;44.920;8.616;2023-05-19T06:52:06;100558.59;;;21.86;49.47
35716;BME280;21840;44.920;8.616;2023-05-19T06:54:32;100568.50;;;21.92;48.88
35716;BME280;21840;44.920;8.616;2023-05-19T06:56:57;100557.75;;;21.79;48.71
35716;BME280;21840;44.920;8.616;2023-05-19T06:59:23;100564.16;;;21.78;48.58
35716;BME280;21840;44.920;8.616;2023-05-19T07:01:49;100563.56;;;22.02;48.05
35716;BME280;21840;44.920;8.616;2023-05-19T07:04:15;100566.22;;;22.02;47.99
35716;BME280;21840;44.920;8.616;2023-05-19T07:06:40;100572.03;;;22.39;47.50
35716;BME280;21840;44.920;8.616;2023-05-19T07:09:07;100565.66;;;22.20;47.60
35716;BME280;21840;44.920;8.616;2023-05-19T07:11:34;100575.69;;;22.11;47.56
35716;BME280;21840;44.920;8.616;2023-05-19T07:14:00;100571.59;;;22.29;47.23
35716;BME280;21840;44.920;8.616;2023-05-19T07:16:29;100564.34;;;22.63;46.71
35716;BME280;21840;44.920;8.616;2023-05-19T07:18:54;100568.28;;;22.53;46.59
35716;BME280;21840;44.920;8.616;2023-05-19T07:21:20;100575.88;;;22.16;47.22
35716;BME280;21840;44.920;8.616;2023-05-19T07:23:46;100570.78;;;22.28;47.03
35716;BME280;21840;44.920;8.616;2023-05-19T07:26:11;100565.63;;;22.07;47.55
35716;BME280;21840;44.920;8.616;2023-05-19T07:28:36;100572.00;;;22.26;47.15
35716;BME280;21840;44.920;8.616;2023-05-19T07:31:02;100571.38;;;22.10;47.41
35716;BME280;21840;44.920;8.616;2023-05-19T07:33:27;100569.31;;;22.12;47.34
35716;BME280;21840;44.920;8.616;2023-05-19T07:35:52;100565.00;;;22.38;46.60
35716;BME280;21840;44.920;8.616;2023-05-19T07:38:18;100575.66;;;22.71;46.51
35716;BME280;21840;44.920;8.616;2023-05-19T07:40:43;100575.66;;;22.71;46.65
35716;BME280;21840;44.920;8.616;2023-05-19T07:43:09;100585.97;;;22.68;46.16
35716;BME280;21840;44.920;8.616;2023-05-19T07:45:35;100571.53;;;22.75;46.15
35716;BME280;21840;44.920;8.616;2023-05-19T07:48:01;100578.75;;;22.75;46.13
35716;BME280;21840;44.920;8.616;2023-05-19T07:50:26;100578.13;;;22.66;46.02
35716;BME280;21840;44.920;8.616;2023-05-19T07:52:52;100588.44;;;22.63;45.65
35716;BME280;21840;44.920;8.616;2023-05-19T07:55:17;100580.59;;;22.74;45.69
35716;BME280;21840;44.920;8.616;2023-05-19T07:57:43;100591.13;;;22.63;46.01
35716;BME280;21840;44.920;8.616;2023-05-19T08:00:08;100584.09;;;22.75;45.88
35716;BME280;21840;44.920;8.616;2023-05-19T08:02:38;100585.53;;;22.77;45.84
35716;BME280;21840;44.920;8.616;2023-05-19T08:05:04;100592.50;;;22.98;45.68
35716;BME280;21840;44.920;8.616;2023-05-19T08:07:29;100594.34;;;22.91;46.07
35716;BME280;21840;44.920;8.616;2023-05-19T08:09:54;100588.38;;;22.96;45.94
35716;BME280;21840;44.920;8.616;2023-05-19T08:12:20;100587.13;;;23.12;45.78
35716;BME280;21840;44.920;8.616;2023-05-19T08:14:45;100591.00;;;23.22;45.26
35716;BME280;21840;44.920;8.616;2023-05-19T08:17:11;100593.41;;;23.31;45.76
35716;BME280;21840;44.920;8.616;2023-05-19T08:19:36;100586.59;;;23.41;45.12
35716;BME280;21840;44.920;8.616;2023-05-19T08:22:04;100590.44;;;23.52;44.71
35716;BME280;21840;44.920;8.616;2023-05-19T08:24:30;100587.84;;;23.77;44.73
35716;BME280;21840;44.920;8.616;2023-05-19T08:26:56;100586.84;;;23.65;44.57
35716;BME280;21840;44.920;8.616;2023-05-19T08:29:22;100586.78;;;23.40;44.86
35716;BME280;21840;44.920;8.616;2023-05-19T08:31:47;100590.28;;;23.40;45.30
35716;BME280;21840;44.920;8.616;2023-05-19T08:34:15;100586.00;;;23.26;44.89
35716;BME280;21840;44.920;8.616;2023-05-19T08:36:41;100589.00;;;23.50;45.12
35716;BME280;21840;44.920;8.616;2023-05-19T08:39:06;100587.06;;;23.25;45.57
35716;BME280;21840;44.920;8.616;2023-05-19T08:41:31;100590.63;;;23.51;44.51
35716;BME280;21840;44.920;8.616;2023-05-19T08:44:02;100592.63;;;23.23;44.77
35716;BME280;21840;44.920;8.616;2023-05-19T08:46:27;100596.78;;;23.19;45.00
35716;BME280;21840;44.920;8.616;2023-05-19T08:48:53;100590.75;;;23.31;45.07
35716;BME280;21840;44.920;8.616;2023-05-19T08:53:55;100596.22;;;22.91;45.67
35716;BME280;21840;44.920;8.616;2023-05-19T08:56:27;100594.28;;;23.24;45.28
35716;BME280;21840;44.920;8.616;2023-05-19T08:58:52;100600.75;;;22.90;44.99
35716;BME280;21840;44.920;8.616;2023-05-19T09:01:20;100601.22;;;23.39;44.45
35716;BME280;21840;44.920;8.616;2023-05-19T09:03:46;100601.75;;;23.09;45.13
35716;BME280;21840;44.920;8.616;2023-05-19T09:06:13;100593.28;;;23.12;44.56
35716;BME280;21840;44.920;8.616;2023-05-19T09:08:39;100604.44;;;23.09;44.79
35716;BME280;21840;44.920;8.616;2023-05-19T09:11:05;100607.06;;;23.67;43.91
35716;BME280;21840;44.920;8.616;2023-05-19T09:13:31;100599.78;;;23.81;43.83
35716;BME280;21840;44.920;8.616;2023-05-19T09:15:56;100610.38;;;23.63;43.71
35716;BME280;21840;44.920;8.616;2023-05-19T09:18:23;100609.47;;;23.82;44.37
35716;BME280;21840;44.920;8.616;2023-05-19T09:20:48;100602.09;;;23.26;44.80
35716;BME280;21840;44.920;8.616;2023-05-19T09:23:14;100604.50;;;23.41;44.29
35716;BME280;21840;44.920;8.616;2023-05-19T09:25:46;100608.28;;;23.72;43.92
35716;BME280;21840;44.920;8.616;2023-05-19T09:28:12;100606.22;;;23.67;44.35
35716;BME280;21840;44.920;8.616;2023-05-19T09:30:38;100610.31;;;23.76;43.86
35716;BME280;21840;44.920;8.616;2023-05-19T09:33:03;100611.47;;;23.48;44.31
35716;BME280;21840;44.920;8.616;2023-05-19T09:35:33;100612.34;;;23.42;44.98
35716;BME280;21840;44.920;8.616;2023-05-19T09:37:59;100607.97;;;23.48;44.82
35716;BME280;21840;44.920;8.616;2023-05-19T09:40:26;100608.84;;;23.80;44.67
35716;BME280;21840;44.920;8.616;2023-05-19T09:42:51;100616.69;;;23.82;44.12
35716;BME280;21840;44.920;8.616;2023-05-19T09:45:18;100607.41;;;23.84;44.03
35716;BME280;21840;44.920;8.616;2023-05-19T09:47:43;100597.31;;;23.41;44.70
35716;BME280;21840;44.920;8.616;2023-05-19T09:50:09;100601.69;;;23.74;44.18
35716;BME280;21840;44.920;8.616;2023-05-19T09:52:38;100594.50;;;24.00;43.88
35716;BME280;21840;44.920;8.616;2023-05-19T09:55:05;100598.31;;;23.85;43.93
35716;BME280;21840;44.920;8.616;2023-05-19T09:57:33;100599.53;;;23.89;43.56
35716;BME280;21840;44.920;8.616;2023-05-19T10:00:04;100597.19;;;24.25;43.63
35716;BME280;21840;44.920;8.616;2023-05-19T10:02:42;100599.81;;;24.06;44.17
35716;BME280;21840;44.920;8.616;2023-05-19T10:05:11;100600.00;;;24.11;43.66
35716;BME280;21840;44.920;8.616;2023-05-19T10:07:38;100603.94;;;23.77;43.65
35716;BME280;21840;44.920;8.616;2023-05-19T10:10:05;100608.19;;;23.92;44.02
35716;BME280;21840;44.920;8.616;2023-05-19T10:12:33;100602.00;;;24.16;43.36
35716;BME280;21840;44.920;8.616;2023-05-19T10:14:58;100603.81;;;24.22;43.20
35716;BME280;21840;44.920;8.616;2023-05-19T10:17:24;100601.78;;;24.18;43.65
35716;BME280;21840;44.920;8.616;2023-05-19T10:19:50;100596.13;;;23.69;43.47
35716;BME280;21840;44.920;8.616;2023-05-19T10:22:17;100598.56;;;23.39;44.89
35716;BME280;21840;44.920;8.616;2023-05-19T10:24:42;100594.91;;;23.65;44.93
35716;BME280;21840;44.920;8.616;2023-05-19T10:27:09;100598.50;;;23.45;45.46
35716;BME280;21840;44.920;8.616;2023-05-19T10:29:37;100590.59;;;23.19;46.39
35716;BME280;21840;44.920;8.616;2023-05-19T10:32:05;100590.69;;;23.44;45.66
35716;BME280;21840;44.920;8.616;2023-05-19T10:34:35;100601.06;;;23.65;45.39
35716;BME280;21840;44.920;8.616;2023-05-19T10:37:16;100582.84;;;23.42;45.21
35716;BME280;21840;44.920;8.616;2023-05-19T10:39:45;100592.66;;;23.62;44.90
35716;BME280;21840;44.920;8.616;2023-05-19T10:42:15;100585.88;;;23.08;45.39
35716;BME280;21840;44.920;8.616;2023-05-19T10:47:28;100596.16;;;23.24;46.07
35716;BME280;21840;44.920;8.616;2023-05-19T10:49:54;100591.00;;;23.16;45.65
35716;BME280;21840;44.920;8.616;2023-05-19T10:52:23;100592.50;;;22.98;45.68
35716;BME280;21840;44.920;8.616;2023-05-19T10:54:53;100596.16;;;23.17;46.02
35716;BME280;21840;44.920;8.616;2023-05-19T10:57:20;100584.72;;;22.77;46.44
35716;BME280;21840;44.920;8.616;2023-05-19T10:59:50;100587.53;;;23.09;46.43
35716;BME280;21840;44.920;8.616;2023-05-19T11:02:35;100585.09;;;22.87;46.61
35716;BME280;21840;44.920;8.616;2023-05-19T11:05:07;100574.38;;;23.07;46.24
35716;BME280;21840;44.920;8.616;2023-05-19T11:07:33;100580.66;;;22.48;47.49
35716;BME280;21840;44.920;8.616;2023-05-19T11:09:58;100581.84;;;22.72;47.55
35716;BME280;21840;44.920;8.616;2023-05-19T11:12:29;100581.47;;;22.61;47.43
35716;BME280;21840;44.920;8.616;2023-05-19T11:15:03;100572.00;;;22.52;47.86
35716;BME280;21840;44.920;8.616;2023-05-19T11:17:29;100576.72;;;22.57;47.24
35716;BME280;21840;44.920;8.616;2023-05-19T11:19:55;100561.44;;;22.77;47.09
35716;BME280;21840;44.920;8.616;2023-05-19T11:22:21;100563.94;;;22.72;46.94
35716;BME280;21840;44.920;8.616;2023-05-19T11:24:48;100560.41;;;22.78;47.01
35716;BME280;21840;44.920;8.616;2023-05-19T11:27:31;100554.06;;;22.53;47.02
35716;BME280;21840;44.920;8.616;2023-05-19T11:32:29;100546.38;;;22.83;46.49
35716;BME280;21840;44.920;8.616;2023-05-19T11:34:55;100552.22;;;22.67;46.97
35716;BME280;21840;44.920;8.616;2023-05-19T11:37:20;100541.25;;;22.75;46.90
35716;BME280;21840;44.920;8.616;2023-05-19T11:39:46;100540.97;;;22.96;47.10
35716;BME280;21840;44.920;8.616;2023-05-19T11:42:11;100531.13;;;22.90;47.01
35716;BME280;21840;44.920;8.616;2023-05-19T11:44:39;100527.00;;;22.88;46.56
35716;BME280;21840;44.920;8.616;2023-05-19T11:47:05;100525.03;;;22.63;47.20
35716;BME280;21840;44.920;8.616;2023-05-19T11:49:31;100528.78;;;22.29;48.00
35716;BME280;21840;44.920;8.616;2023-05-19T11:51:58;100527.56;;;22.25;48.07
35716;BME280;21840;44.920;8.616;2023-05-19T11:54:31;100523.84;;;21.86;48.82
35716;BME280;21840;44.920;8.616;2023-05-19T11:57:00;100520.97;;;21.94;48.88
35716;BME280;21840;44.920;8.616;2023-05-19T11:59:33;100531.88;;;21.99;48.50
35716;BME280;21840;44.920;8.616;2023-05-19T12:04:40;100530.22;;;21.98;48.43
35716;BME280;21840;44.920;8.616;2023-05-19T12:07:06;100533.69;;;21.79;49.06
35716;BME280;21840;44.920;8.616;2023-05-19T12:09:31;100532.50;;;21.94;48.45
35716;BME280;21840;44.920;8.616;2023-05-19T12:11:57;100546.09;;;22.20;48.06
35716;BME280;21840;44.920;8.616;2023-05-19T12:14:24;100537.22;;;21.99;48.64
35716;BME280;21840;44.920;8.616;2023-05-19T12:16:49;100540.50;;;22.01;48.71
35716;BME280;21840;44.920;8.616;2023-05-19T12:19:15;100538.69;;;22.22;48.39
35716;BME280;21840;44.920;8.616;2023-05-19T12:21:40;100536.19;;;22.07;48.15
35716;BME280;21840;44.920;8.616;2023-05-19T12:24:06;100536.53;;;22.64;47.50
35716;BME280;21840;44.920;8.616;2023-05-19T12:26:32;100538.09;;;22.91;46.96
35716;BME280;21840;44.920;8.616;2023-05-19T12:28:57;100539.59;;;22.74;47.26
35716;BME280;21840;44.920;8.616;2023-05-19T12:31:22;100538.84;;;23.18;46.32
35716;BME280;21840;44.920;8.616;2023-05-19T12:33:48;100543.91;;;23.01;45.87
35716;BME280;21840;44.920;8.616;2023-05-19T12:36:17;100542.72;;;23.29;45.90
35716;BME280;21840;44.920;8.616;2023-05-19T12:38:43;100536.97;;;23.64;45.36
35716;BME280;21840;44.920;8.616;2023-05-19T12:41:11;100539.81;;;23.69;45.22
35716;BME280;21840;44.920;8.616;2023-05-19T12:43:37;100542.25;;;24.02;44.47
35716;BME280;21840;44.920;8.616;2023-05-19T12:46:12;100541.69;;;23.94;44.38
35716;BME280;21840;44.920;8.616;2023-05-19T12:48:41;100549.69;;;24.25;44.26
35716;BME280;21840;44.920;8.616;2023-05-19T12:51:07;100543.31;;;24.01;44.44
35716;BME280;21840;44.920;8.616;2023-05-19T12:53:32;100546.81;;;23.77;44.82
35716;BME280;21840;44.920;8.616;2023-05-19T12:55:58;100550.63;;;23.87;45.15
35716;BME280;21840;44.920;8.616;2023-05-19T12:58:24;100551.94;;;23.78;45.10
35716;BME280;21840;44.920;8.616;2023-05-19T13:00:58;100543.38;;;23.56;45.37
35716;BME280;21840;44.920;8.616;2023-05-19T13:03:24;100533.94;;;23.09;45.83
35716;BME280;21840;44.920;8.616;2023-05-19T13:05:49;100529.00;;;23.12;46.19